Time;durP1;ratioP1;P1;durP2;ratioP2;P2;SDS_P1;SDS_P2;PMS_P1;PMS_P2;Temp;Humidity;BMP_temperature;BMP_pressure;BME280_temperature;BME280_humidity;BME280_pressure;Samples;Min_cycle;Max_cycle;Signal;HPM_P1;HPM_P2
2023/08/12 00:01:19;;;;;;;;;;;;;;;;;;;;;
2023/08/12 00:04:52;;;;;;;;;;;;;;;;;;;;;
2023/08/12 00:08:05;;;;;;;11.02;5.15;;;;;;;18.80;95.54;100832.06;4929195;29;20525;-72
2023/08/12 00:11:48;;;;;;;;;;;;;;;;;;;;;
2023/08/12 00:15:16;;;;;;;11.95;4.50;;;;;;;18.93;94.71;100805.41;4904225;29;20083;-73
2023/08/12 00:18:36;;;;;;;14.57;4.90;;;;;;;18.86;95.48;100811.31;4905375;29;20048;-73
2023/08/12 00:22:31;;;;;;;15.30;4.63;;;;;;;18.85;95.94;100810.47;4902892;29;20040;-73
2023/08/12 00:25:42;;;;;;;12.32;4.90;;;;;;;18.92;95.28;100818.75;4903365;29;20073;-73
2023/08/12 00:28:54;;;;;;;16.27;5.35;;;;;;;19.00;94.31;100808.38;4905154;29;20047;-72
2023/08/12 00:32:26;;;;;;;15.70;6.07;;;;;;;19.02;93.87;100801.16;4904094;29;20043;-72
2023/08/12 00:35:53;;;;;;;12.90;5.35;;;;;;;18.95;95.16;100792.00;4909499;29;20514;-72
2023/08/12 00:39:34;;;;;;;9.95;4.88;;;;;;;18.90;95.26;100808.31;4908400;29;20092;-72
2023/08/12 00:42:59;;;;;;;17.15;5.28;;;;;;;18.97;94.82;100795.38;4889386;29;20559;-73
2023/08/12 00:46:17;;;;;;;12.57;4.85;;;;;;;19.01;94.56;100808.25;4909723;29;20131;-73
2023/08/12 00:49:45;;;;;;;12.65;4.65;;;;;;;18.93;95.46;100799.28;4907749;29;20097;-73
2023/08/12 00:53:22;;;;;;;9.98;4.57;;;;;;;19.02;95.12;100811.75;4905966;29;20139;-72
2023/08/12 00:57:04;;;;;;;12.57;5.35;;;;;;;19.04;94.76;100810.63;4909058;29;20038;-72
2023/08/12 01:00:24;;;;;;;15.05;5.45;;;;;;;19.01;94.56;100812.72;4905900;29;20056;-72
2023/08/12 01:03:37;;;;;;;9.45;4.20;;;;;;;18.92;95.56;100819.63;4909743;29;20463;-72
2023/08/12 01:06:46;;;;;;;9.02;4.43;;;;;;;18.96;95.28;100814.91;4907390;29;20091;-73
2023/08/12 01:10:14;;;;;;;12.13;4.90;;;;;;;18.94;95.57;100811.53;4909391;29;20051;-73
2023/08/12 01:13:54;;;;;;;7.50;4.30;;;;;;;18.88;95.95;100809.41;4929692;28;20062;-72
2023/08/12 01:17:07;;;;;;;7.38;4.53;;;;;;;18.93;95.92;100801.91;4945250;28;20045;-73
2023/08/12 01:20:15;;;;;;;7.93;4.30;;;;;;;18.97;96.11;100800.69;4946812;28;20144;-72
2023/08/12 01:23:21;;;;;;;12.13;5.13;;;;;;;18.91;96.60;100795.91;4924683;29;20123;-72
2023/08/12 01:26:35;;;;;;;13.90;5.07;;;;;;;18.88;97.81;100806.75;4946695;28;20042;-72
2023/08/12 01:29:46;;;;;;;11.50;5.20;;;;;;;18.96;97.39;100809.63;4944261;28;20051;-72
2023/08/12 01:33:12;;;;;;;12.38;5.10;;;;;;;18.91;98.17;100809.97;4946668;28;20127;-73
2023/08/12 01:36:24;;;;;;;9.25;4.97;;;;;;;18.88;99.08;100804.09;4934669;28;20042;-71
2023/08/12 01:39:36;;;;;;;11.02;5.55;;;;;;;18.86;99.39;100803.38;4928755;29;20063;-72
2023/08/12 01:42:43;;;;;;;15.52;5.05;;;;;;;18.87;99.54;100799.78;4932203;29;20045;-72
2023/08/12 01:45:51;;;;;;;8.63;4.95;;;;;;;18.92;99.59;100803.72;4945361;28;20069;-72
2023/08/12 01:48:58;;;;;;;11.75;4.90;;;;;;;18.88;99.99;100812.88;4936139;28;20100;-72
2023/08/12 01:52:02;;;;;;;13.65;4.90;;;;;;;18.84;100.00;100816.75;4946517;28;20064;-72
2023/08/12 01:55:07;;;;;;;12.65;4.82;;;;;;;18.81;100.00;100809.91;4942837;28;20131;-72
2023/08/12 01:58:11;;;;;;;10.77;4.97;;;;;;;18.84;100.00;100813.28;4932342;28;20513;-72
2023/08/12 02:01:15;;;;;;;9.07;4.60;;;;;;;18.85;100.00;100838.78;4933355;28;20111;-72
2023/08/12 02:04:20;;;;;;;8.95;4.93;;;;;;;18.87;100.00;100836.88;4934136;28;20797;-72
2023/08/12 02:07:31;;;;;;;11.43;5.15;;;;;;;18.91;100.00;100830.34;4934622;29;20054;-72
2023/08/12 02:10:39;;;;;;;11.38;4.38;;;;;;;18.90;100.00;100836.63;4934187;28;20095;-73
2023/08/12 02:13:51;;;;;;;9.63;4.78;;;;;;;18.89;100.00;100843.72;4931299;29;20053;-72
2023/08/12 02:16:55;;;;;;;15.02;5.28;;;;;;;18.90;100.00;100845.41;4933420;29;20043;-73
2023/08/12 02:20:03;;;;;;;10.25;4.90;;;;;;;19.01;100.00;100850.63;4934200;28;20468;-73
2023/08/12 02:23:10;;;;;;;9.77;4.60;;;;;;;19.00;100.00;100848.13;4942371;28;20062;-73
2023/08/12 02:26:21;;;;;;;13.43;5.97;;;;;;;18.93;100.00;100854.91;4932369;28;20094;-73
2023/08/12 02:29:28;;;;;;;17.42;5.60;;;;;;;19.01;100.00;100871.00;4944803;28;20120;-74
2023/08/12 02:32:38;;;;;;;;;;;;;;;18.99;100.00;100883.56;4945508;28;20458;-73
2023/08/12 02:35:46;;;;;;;13.20;4.63;;;;;;;19.00;100.00;100885.25;4934180;28;19994;-73
2023/08/12 02:38:53;;;;;;;10.60;5.60;;;;;;;19.13;100.00;100862.03;4931646;29;20094;-73
2023/08/12 02:42:02;;;;;;;13.18;4.97;;;;;;;19.07;100.00;100833.41;4944498;29;20095;-72
2023/08/12 02:45:07;;;;;;;14.27;5.93;;;;;;;18.98;100.00;100829.69;4930024;28;20042;-72
2023/08/12 02:48:12;;;;;;;8.32;5.65;;;;;;;18.97;100.00;100822.72;4945500;28;20081;-72
2023/08/12 02:51:16;;;;;;;7.75;4.65;;;;;;;18.92;100.00;100829.38;4944897;28;20515;-71
2023/08/12 02:54:21;;;;;;;8.13;4.82;;;;;;;18.85;100.00;100826.38;4933435;29;20058;-72
2023/08/12 02:57:24;;;;;;;10.48;4.25;;;;;;;18.89;100.00;100819.00;4933822;28;20089;-71
2023/08/12 03:00:30;;;;;;;7.40;5.15;;;;;;;18.96;100.00;100820.22;4934485;28;20098;-73
2023/08/12 03:03:34;;;;;;;8.25;4.53;;;;;;;19.00;100.00;100818.97;4943128;29;20091;-72
2023/08/12 03:06:38;;;;;;;6.07;4.40;;;;;;;19.01;100.00;100810.06;4932582;28;20041;-72
2023/08/12 03:09:44;;;;;;;8.60;4.72;;;;;;;19.08;100.00;100797.13;4945480;28;20050;-72
2023/08/12 03:12:53;;;;;;;7.78;5.13;;;;;;;19.10;100.00;100790.75;4929686;29;20082;-72
2023/08/12 03:16:01;;;;;;;6.35;4.68;;;;;;;19.15;100.00;100783.25;4932470;28;20042;-74
2023/08/12 03:19:04;;;;;;;7.72;4.63;;;;;;;19.19;100.00;100791.78;4933257;28;20090;-73
2023/08/12 03:22:08;;;;;;;7.53;3.95;;;;;;;19.23;100.00;100780.78;4929822;28;20520;-73
2023/08/12 03:25:15;;;;;;;5.18;3.90;;;;;;;19.18;100.00;100772.41;4931809;28;20508;-73
2023/08/12 03:28:20;;;;;;;9.25;4.15;;;;;;;19.09;100.00;100773.16;4922084;28;20042;-72
2023/08/12 03:31:24;;;;;;;6.85;4.13;;;;;;;19.15;100.00;100762.06;4933478;28;20105;-72
2023/08/12 03:34:30;;;;;;;9.27;3.88;;;;;;;19.05;100.00;100767.28;4930184;29;20095;-72
2023/08/12 03:37:35;;;;;;;6.32;4.15;;;;;;;19.06;100.00;100768.13;4931303;28;20087;-72
2023/08/12 03:40:41;;;;;;;5.05;3.65;;;;;;;19.09;100.00;100773.16;4932936;28;20054;-72
2023/08/12 03:43:48;;;;;;;4.45;4.00;;;;;;;19.09;100.00;100767.88;4929260;29;20054;-72
2023/08/12 03:46:53;;;;;;;5.28;3.58;;;;;;;19.09;100.00;100773.16;4930658;28;20046;-72
2023/08/12 03:50:00;;;;;;;5.95;4.05;;;;;;;19.18;100.00;100759.13;4931637;28;20043;-72
2023/08/12 03:53:04;;;;;;;7.53;4.35;;;;;;;19.20;100.00;100759.00;4944660;28;20035;-72
2023/08/12 03:56:08;;;;;;;7.90;2.83;;;;;;;19.26;100.00;100764.63;4929134;29;20034;-72
2023/08/12 03:59:15;;;;;;;5.90;3.47;;;;;;;19.31;100.00;100755.44;4927178;29;20050;-72
2023/08/12 04:02:19;;;;;;;5.30;3.53;;;;;;;19.28;100.00;100746.78;4922886;29;20523;-72
2023/08/12 04:05:23;;;;;;;6.00;3.60;;;;;;;19.27;100.00;100742.47;4934159;29;20567;-72
2023/08/12 04:08:27;;;;;;;4.80;3.33;;;;;;;19.20;100.00;100743.09;4937193;29;20144;-72
2023/08/12 04:11:31;;;;;;;5.72;3.55;;;;;;;19.21;100.00;100739.50;4938684;29;20105;-72
2023/08/12 04:14:34;;;;;;;7.82;4.20;;;;;;;19.25;100.00;100739.09;4926531;29;20054;-72
2023/08/12 04:17:40;;;;;;;5.13;3.75;;;;;;;19.20;100.00;100735.13;4916282;29;20082;-72
2023/08/12 04:20:45;;;;;;;6.90;4.38;;;;;;;19.18;100.00;100727.34;4925437;29;20046;-73
2023/08/12 04:23:49;;;;;;;5.30;3.67;;;;;;;19.20;100.00;100733.31;4926375;29;20109;-73
2023/08/12 04:26:53;;;;;;;7.30;4.80;;;;;;;19.25;100.00;100736.44;4925022;29;20050;-72
2023/08/12 04:29:57;;;;;;;7.43;4.10;;;;;;;19.24;100.00;100737.41;4924020;29;20042;-72
2023/08/12 04:33:00;;;;;;;5.40;3.72;;;;;;;19.26;100.00;100732.81;4924621;29;20042;-72
2023/08/12 04:36:06;;;;;;;5.32;3.80;;;;;;;19.27;100.00;100717.72;4923884;29;20517;-72
2023/08/12 04:39:10;;;;;;;7.90;4.05;;;;;;;19.22;100.00;100714.66;4935908;29;20058;-72
2023/08/12 04:42:13;;;;;;;5.05;3.42;;;;;;;19.18;100.00;100723.84;4923651;29;20114;-72
2023/08/12 04:45:17;;;;;;;4.97;4.32;;;;;;;19.16;100.00;100710.72;4935861;29;20146;-72
2023/08/12 04:48:21;;;;;;;4.60;3.78;;;;;;;19.16;100.00;100707.22;4923917;29;20135;-79
2023/08/12 04:51:24;;;;;;;6.43;4.38;;;;;;;19.21;100.00;100697.91;4923322;29;20199;-77
2023/08/12 04:54:27;;;;;;;5.70;3.88;;;;;;;19.23;100.00;100714.50;4923175;29;20067;-78
2023/08/12 04:57:32;;;;;;;5.78;3.72;;;;;;;19.17;100.00;100703.59;4923592;29;20122;-76
2023/08/12 05:00:35;;;;;;;8.32;4.28;;;;;;;19.17;100.00;100701.78;4935487;29;20055;-73
2023/08/12 05:03:38;;;;;;;7.25;4.20;;;;;;;19.22;100.00;100690.78;4934958;29;20123;-74
2023/08/12 05:06:42;;;;;;;4.95;4.18;;;;;;;19.15;100.00;100690.47;4923141;29;20047;-75
2023/08/12 05:09:46;;;;;;;6.05;3.78;;;;;;;19.16;100.00;100686.84;4923646;29;20103;-74
2023/08/12 05:12:54;;;;;;;7.25;4.68;;;;;;;19.23;100.00;100685.34;4923895;29;20066;-74
2023/08/12 05:15:57;;;;;;;7.30;4.45;;;;;;;19.22;100.00;100688.97;4923611;29;20102;-73
2023/08/12 05:19:00;;;;;;;5.53;3.75;;;;;;;19.28;100.00;100688.44;4923665;29;20047;-73
2023/08/12 05:22:03;;;;;;;5.40;4.20;;;;;;;19.28;100.00;100683.16;4922995;29;20055;-75
2023/08/12 05:25:10;;;;;;;8.27;5.03;;;;;;;19.25;100.00;100694.00;4922800;29;20134;-76
2023/08/12 05:28:13;;;;;;;9.98;4.78;;;;;;;19.28;100.00;100698.22;4935032;29;20042;-75
2023/08/12 05:31:16;;;;;;;11.85;4.95;;;;;;;19.34;100.00;100691.56;4935184;29;20051;-73
2023/08/12 05:34:20;;;;;;;7.63;4.63;;;;;;;19.39;100.00;100692.81;4935594;29;20082;-76
2023/08/12 05:37:23;;;;;;;7.80;4.65;;;;;;;19.39;100.00;100698.13;4934396;29;20462;-75
2023/08/12 05:40:30;;;;;;;6.45;4.30;;;;;;;19.39;100.00;100699.94;4935275;29;20050;-75
2023/08/12 05:43:33;;;;;;;8.32;6.03;;;;;;;19.46;100.00;100698.41;4935115;29;20381;-73
2023/08/12 05:46:36;;;;;;;8.82;5.05;;;;;;;19.50;100.00;100694.56;4934945;29;20055;-74
2023/08/12 05:49:40;;;;;;;7.82;5.40;;;;;;;19.56;100.00;100691.38;4935158;29;20415;-74
2023/08/12 05:52:44;;;;;;;9.13;6.00;;;;;;;19.60;100.00;100697.25;4935178;29;20142;-74
2023/08/12 05:55:48;;;;;;;10.48;6.43;;;;;;;19.61;100.00;100693.59;4934239;29;20167;-72
2023/08/12 05:58:51;;;;;;;10.63;8.25;;;;;;;19.73;100.00;100698.69;4932845;29;20239;-73
2023/08/12 06:01:54;;;;;;;9.15;7.40;;;;;;;19.76;100.00;100683.50;4934155;29;20042;-76
2023/08/12 06:04:58;;;;;;;11.98;7.97;;;;;;;19.83;100.00;100692.59;4934774;29;20050;-74
2023/08/12 06:08:01;;;;;;;9.00;7.63;;;;;;;19.85;100.00;100696.78;4934933;29;20127;-73
2023/08/12 06:11:04;;;;;;;11.57;9.60;;;;;;;19.85;100.00;100701.25;4934404;29;20087;-74
2023/08/12 06:14:08;;;;;;;13.23;10.43;;;;;;;19.85;100.00;100717.19;4934678;29;20110;-73
2023/08/12 06:17:11;;;;;;;10.07;8.73;;;;;;;19.89;100.00;100710.63;4935036;29;20557;-74
2023/08/12 06:20:14;;;;;;;12.13;9.57;;;;;;;19.98;100.00;100707.16;4934445;29;20050;-74
2023/08/12 06:23:17;;;;;;;8.88;7.72;;;;;;;20.08;100.00;100715.13;4934392;29;20055;-72
2023/08/12 06:26:21;;;;;;;9.55;8.55;;;;;;;20.16;100.00;100709.97;4934119;29;20051;-73
2023/08/12 06:29:24;;;;;;;8.10;7.30;;;;;;;20.21;100.00;100721.84;4933658;29;20475;-73
2023/08/12 06:32:29;;;;;;;8.40;7.07;;;;;;;20.29;100.00;100730.94;4932313;29;20163;-72
2023/08/12 06:35:32;;;;;;;8.10;7.38;;;;;;;20.31;100.00;100739.63;4933191;29;20118;-72
2023/08/12 06:38:35;;;;;;;8.20;7.38;;;;;;;20.34;100.00;100734.03;4933277;29;20058;-73
2023/08/12 06:41:39;;;;;;;8.35;6.65;;;;;;;20.34;100.00;100734.03;4933691;29;20111;-72
2023/08/12 06:44:43;;;;;;;6.10;5.50;;;;;;;20.35;100.00;100735.69;4933769;29;20046;-72
2023/08/12 06:47:46;;;;;;;5.70;5.20;;;;;;;20.37;100.00;100733.75;4934071;29;20143;-73
2023/08/12 06:50:56;;;;;;;6.50;5.35;;;;;;;20.37;100.00;100739.06;4934418;29;20042;-75
2023/08/12 06:53:59;;;;;;;6.20;5.43;;;;;;;20.37;100.00;100731.94;4933377;29;20043;-78
2023/08/12 06:57:03;;;;;;;8.65;4.93;;;;;;;20.40;100.00;100736.13;4934480;29;20051;-77
2023/08/12 07:00:09;;;;;;;6.18;4.93;;;;;;;20.48;100.00;100738.91;4934180;29;20577;-77
2023/08/12 07:03:12;;;;;;;7.20;4.40;;;;;;;20.42;100.00;100748.31;4933701;29;20058;-79
2023/08/12 07:06:16;;;;;;;5.57;4.70;;;;;;;20.34;100.00;100740.19;4934034;29;20106;-77
2023/08/12 07:09:20;;;;;;;5.53;5.03;;;;;;;20.31;100.00;100744.94;4933802;29;20046;-78
2023/08/12 07:12:23;;;;;;;5.78;5.07;;;;;;;20.21;100.00;100756.38;4933635;29;20074;-79
2023/08/12 07:15:27;;;;;;;7.30;4.50;;;;;;;20.28;100.00;100746.03;4915188;29;20118;-80
2023/08/12 07:18:30;;;;;;;6.00;5.00;;;;;;;20.36;100.00;100740.06;4903418;29;20050;-79
2023/08/12 07:21:34;;;;;;;5.97;5.20;;;;;;;20.45;100.00;100744.50;4914653;29;20047;-79
2023/08/12 07:24:40;;;;;;;7.95;4.80;;;;;;;20.52;100.00;100743.03;4914934;29;20051;-78
2023/08/12 07:27:45;;;;;;;6.32;5.35;;;;;;;20.52;100.00;100744.84;4914435;29;20047;-78
2023/08/12 07:30:52;;;;;;;9.10;5.40;;;;;;;20.53;100.00;100744.69;4913440;29;20051;-76
2023/08/12 07:33:55;;;;;;;5.82;5.22;;;;;;;20.53;100.00;100736.72;4913388;29;20108;-75
2023/08/12 07:37:01;;;;;;;5.93;5.32;;;;;;;20.54;100.00;100735.75;4913228;29;20055;-71
2023/08/12 07:40:05;;;;;;;7.32;6.03;;;;;;;20.62;100.00;100732.41;4913824;29;20055;-68
2023/08/12 07:43:08;;;;;;;6.80;6.10;;;;;;;20.67;100.00;100716.88;4916003;29;20051;-68
2023/08/12 07:46:12;;;;;;;5.85;5.25;;;;;;;20.73;100.00;100715.47;4918274;29;20414;-68
2023/08/12 07:49:17;;;;;;;6.00;5.05;;;;;;;20.73;100.00;100713.66;4918349;29;20083;-71
2023/08/12 07:52:20;;;;;;;6.55;5.00;;;;;;;20.75;100.00;100722.31;4916996;29;20594;-72
2023/08/12 07:55:23;;;;;;;7.25;5.25;;;;;;;20.79;100.00;100728.19;4918182;29;20047;-72
2023/08/12 07:58:27;;;;;;;6.35;5.38;;;;;;;20.86;100.00;100718.66;4918177;29;20106;-72
2023/08/12 08:01:33;;;;;;;5.53;4.90;;;;;;;21.00;100.00;100730.69;4917181;29;20556;-72
2023/08/12 08:04:37;;;;;;;8.98;5.57;;;;;;;21.05;100.00;100721.28;4917826;29;20103;-72
2023/08/12 08:07:40;;;;;;;6.93;5.40;;;;;;;21.13;100.00;100717.94;4917398;29;20405;-72
2023/08/12 08:10:44;;;;;;;8.80;5.60;;;;;;;21.20;100.00;100715.53;4916250;29;20050;-72
2023/08/12 08:13:48;;;;;;;8.02;7.10;;;;;;;21.25;100.00;100718.56;4916203;29;20059;-72
2023/08/12 08:16:51;;;;;;;8.35;6.13;;;;;;;21.25;100.00;100700.81;4917147;29;20055;-72
2023/08/12 08:19:54;;;;;;;6.63;6.00;;;;;;;21.36;100.00;100699.84;4917211;29;20055;-72
2023/08/12 08:22:59;;;;;;;6.95;5.78;;;;;;;21.44;100.00;100702.63;4915620;29;20055;-72
2023/08/12 08:26:03;;;;;;;6.60;5.90;;;;;;;21.49;100.00;100703.00;4916059;29;20112;-72
2023/08/12 08:29:07;;;;;;;5.60;5.10;;;;;;;21.58;100.00;100698.63;4917323;29;20099;-72
2023/08/12 08:32:11;;;;;;;5.40;4.70;;;;;;;21.63;100.00;100695.50;4921292;29;20106;-72
2023/08/12 08:35:15;;;;;;;7.68;5.53;;;;;;;21.68;100.00;100703.91;4936734;29;20485;-72
2023/08/12 08:38:20;;;;;;;5.57;4.97;;;;;;;21.80;100.00;100689.41;4935955;29;20043;-72
2023/08/12 08:41:24;;;;;;;5.15;4.13;;;;;;;21.87;100.00;100687.81;4936099;29;20055;-72
2023/08/12 08:44:32;;;;;;;5.45;4.30;;;;;;;21.94;100.00;100682.72;4936246;29;20103;-72
2023/08/12 08:47:36;;;;;;;5.70;4.65;;;;;;;21.97;100.00;100672.63;4935677;29;20098;-72
2023/08/12 08:50:42;;;;;;;5.28;4.55;;;;;;;22.11;100.00;100670.41;4936375;29;20041;-70
2023/08/12 08:53:47;;;;;;;5.00;4.10;;;;;;;22.16;100.00;100668.19;4935059;29;20119;-70
2023/08/12 08:56:51;;;;;;;4.90;4.50;;;;;;;22.20;100.00;100685.53;4935434;29;20123;-72
2023/08/12 08:59:54;;;;;;;3.92;2.75;;;;;;;22.20;100.00;100680.19;4935414;29;20430;-79
2023/08/12 09:02:58;;;;;;;6.35;2.70;;;;;;;22.28;100.00;100674.97;4936071;29;20127;-74
2023/08/12 09:06:01;;;;;;;4.57;2.53;;;;;;;22.25;100.00;100675.25;4936381;29;20466;-81
2023/08/12 09:09:12;;;;;;;4.30;2.60;;;;;;;22.20;100.00;100685.53;4924500;29;20046;-76
2023/08/12 09:12:16;;;;;;;5.70;2.38;;;;;;;22.19;100.00;100689.19;4924220;29;20043;-83
2023/08/12 09:15:20;;;;;;;2.90;2.15;;;;;;;22.24;100.00;100681.59;4935872;29;20139;-80
2023/08/12 09:18:24;;;;;;;4.20;2.20;;;;;;;22.26;100.00;100682.25;4936237;29;20171;-81
2023/08/12 09:21:27;;;;;;;5.18;2.38;;;;;;;22.29;100.00;100676.63;4936229;29;20561;-78
2023/08/12 09:24:33;;;;;;;7.07;2.00;;;;;;;22.36;100.00;100682.16;4936000;29;20062;-78
2023/08/12 09:27:55;;;;;;;4.20;2.25;;;;;;;22.54;100.00;100677.69;4924858;29;20042;-77
2023/08/12 09:31:43;;;;;;;;;;;;;;;;;;;;;
2023/08/12 09:35:39;;;;;;;5.30;2.20;;;;;;;22.68;100.00;100676.28;4911567;29;20062;-77
2023/08/12 09:38:44;;;;;;;5.57;2.35;;;;;;;22.66;98.31;100675.63;4941346;29;20379;-78
2023/08/12 09:41:47;;;;;;;3.30;2.25;;;;;;;22.72;99.76;100667.00;4938376;28;20054;-78
2023/08/12 09:44:51;;;;;;;3.75;2.20;;;;;;;22.79;100.00;100668.03;4953910;28;20054;-78
2023/08/12 09:47:57;;;;;;;4.30;2.22;;;;;;;22.79;99.10;100676.03;4913667;29;20123;-77
2023/08/12 09:51:01;;;;;;;4.82;2.63;;;;;;;22.71;100.00;100682.13;4914628;29;20055;-77
2023/08/12 09:54:05;;;;;;;5.50;2.55;;;;;;;22.71;100.00;100705.28;4915338;29;20126;-78
2023/08/12 09:57:11;;;;;;;3.70;2.20;;;;;;;22.68;100.00;100698.44;4915401;29;20106;-79
2023/08/12 10:00:19;;;;;;;5.65;2.60;;;;;;;22.71;100.00;100703.47;4903674;29;20084;-83
2023/08/12 10:03:24;;;;;;;3.22;2.15;;;;;;;22.68;100.00;100721.59;4904303;29;20055;-82
2023/08/12 10:06:29;;;;;;;4.40;2.70;;;;;;;22.60;100.00;100722.38;4903750;29;20529;-85
2023/08/12 10:09:35;;;;;;;4.07;2.28;;;;;;;22.47;99.37;100721.91;4916287;29;20111;-81
2023/08/12 10:12:40;;;;;;;5.05;2.45;;;;;;;22.54;100.00;100716.81;4915827;29;20089;-78
2023/08/12 10:15:45;;;;;;;6.13;2.33;;;;;;;22.50;100.00;100714.47;4904760;29;20083;-75
2023/08/12 10:18:49;;;;;;;9.65;2.03;;;;;;;22.60;100.00;100718.88;4916127;29;20065;-76
2023/08/12 10:21:58;;;;;;;4.93;2.65;;;;;;;22.52;100.00;100724.94;4916396;29;20052;-75
2023/08/12 10:25:04;;;;;;;4.40;2.42;;;;;;;22.57;100.00;100727.16;4916118;29;20068;-74
2023/08/12 10:28:10;;;;;;;3.67;1.90;;;;;;;22.62;98.86;100720.41;4903705;29;20075;-72
2023/08/12 10:31:13;;;;;;;4.70;2.15;;;;;;;22.65;99.40;100721.91;4915503;29;20047;-78
2023/08/12 10:34:20;;;;;;;4.60;1.75;;;;;;;22.66;97.63;100718.25;4915581;29;20047;-77
2023/08/12 10:37:25;;;;;;;6.07;2.28;;;;;;;22.72;100.00;100712.31;4903445;29;20156;-72
2023/08/12 10:40:29;;;;;;;6.28;2.20;;;;;;;22.71;100.00;100702.63;4915496;29;20050;-79
2023/08/12 10:44:08;;;;;;;4.30;2.10;;;;;;;22.70;99.39;100690.28;4915302;29;20112;-76
2023/08/12 10:47:11;;;;;;;6.28;2.10;;;;;;;22.79;99.44;100684.03;4915286;29;20531;-77
2023/08/12 10:50:19;;;;;;;4.00;1.90;;;;;;;22.90;99.16;100674.94;4915998;29;20046;-78
2023/08/12 10:53:41;;;;;;;4.57;2.20;;;;;;;23.02;96.82;100678.22;4915767;29;20131;-73
2023/08/12 10:57:03;;;;;;;5.32;1.98;;;;;;;23.08;92.93;100673.09;4914987;29;20063;-77
2023/08/12 11:00:11;;;;;;;4.65;2.05;;;;;;;23.13;92.88;100667.28;4903966;29;20222;-75
2023/08/12 11:03:15;;;;;;;4.88;2.40;;;;;;;23.24;92.42;100656.34;4915304;29;20102;-73
2023/08/12 11:06:46;;;;;;;9.27;2.15;;;;;;;23.40;90.78;100653.75;4903418;29;20056;-74
2023/08/12 11:09:53;;;;;;;5.03;2.08;;;;;;;23.45;89.20;100647.91;4915225;29;20087;-70
2023/08/12 11:12:57;;;;;;;3.28;1.63;;;;;;;23.53;88.18;100644.44;4902996;29;20112;-74
2023/08/12 11:16:09;;;;;;;3.47;1.80;;;;;;;23.60;86.65;100634.78;4914664;29;20134;-71
2023/08/12 11:19:13;;;;;;;6.63;2.10;;;;;;;23.60;86.47;100627.63;4914314;29;20103;-74
2023/08/12 11:22:17;;;;;;;7.93;2.30;;;;;;;23.63;86.22;100613.13;4914721;29;20082;-73
2023/08/12 11:25:22;;;;;;;7.78;2.00;;;;;;;23.70;87.49;100606.16;4914656;29;20062;-73
2023/08/12 11:28:26;;;;;;;5.35;2.10;;;;;;;23.82;86.87;100618.19;4914551;29;20119;-77
2023/08/12 11:31:30;;;;;;;4.80;1.65;;;;;;;23.89;84.66;100627.22;4914444;29;20099;-75
2023/08/12 11:34:34;;;;;;;3.45;2.08;;;;;;;23.88;84.48;100620.22;4914486;29;20067;-77
2023/08/12 11:37:38;;;;;;;3.30;1.80;;;;;;;23.87;85.12;100610.53;4914518;29;20091;-75
2023/08/12 11:40:42;;;;;;;3.72;1.85;;;;;;;23.76;84.92;100607.34;4914563;29;20050;-74
2023/08/12 11:43:45;;;;;;;4.72;2.00;;;;;;;23.83;85.17;100606.50;4914347;29;20128;-75
2023/08/12 11:46:50;;;;;;;10.43;2.53;;;;;;;23.94;85.09;100599.19;4913530;29;20107;-72
2023/08/12 11:49:53;;;;;;;4.25;1.98;;;;;;;23.71;82.56;100599.84;4914289;29;20043;-70
2023/08/12 11:53:00;;;;;;;4.40;2.08;;;;;;;23.63;83.21;100603.28;4914147;29;20367;-78
2023/08/12 11:56:03;;;;;;;5.95;2.53;;;;;;;23.55;82.78;100618.44;4914686;29;20074;-77
2023/08/12 11:59:07;;;;;;;4.82;1.90;;;;;;;23.60;82.83;100616.94;4914343;29;20087;-80
2023/08/12 12:02:11;;;;;;;5.85;2.58;;;;;;;23.70;83.21;100629.34;4913741;29;20048;-77
2023/08/12 12:05:15;;;;;;;8.63;4.35;;;;;;;23.69;85.51;100630.34;4912816;29;20071;-77
2023/08/12 12:08:22;;;;;;;4.68;2.60;;;;;;;23.68;82.88;100637.50;4914141;29;20103;-78
2023/08/12 12:11:33;;;;;;;5.70;2.60;;;;;;;23.73;83.71;100632.53;4903019;29;20059;-77
2023/08/12 12:14:36;;;;;;;5.72;2.60;;;;;;;23.85;84.33;100639.22;4913800;29;20058;-75
2023/08/12 12:17:40;;;;;;;6.70;2.50;;;;;;;23.97;82.95;100638.94;4914040;29;20063;-73
2023/08/12 12:20:57;;;;;;;4.78;2.00;;;;;;;24.28;80.92;100644.44;4914003;29;20517;-77
2023/08/12 12:24:06;;;;;;;4.80;1.80;;;;;;;24.53;79.56;100639.97;4912693;29;20075;-71
2023/08/12 12:27:11;;;;;;;3.15;2.00;;;;;;;24.58;77.57;100643.81;4912691;29;20111;-73
2023/08/12 12:30:19;;;;;;;4.60;1.95;;;;;;;24.80;77.35;100644.97;4917424;29;20051;-79
2023/08/12 12:33:22;;;;;;;5.25;2.13;;;;;;;24.87;76.76;100644.28;4917610;29;20050;-72
2023/08/12 12:36:31;;;;;;;3.47;1.90;;;;;;;24.88;75.79;100645.94;4917020;29;20107;-78
2023/08/12 12:39:38;;;;;;;3.88;2.10;;;;;;;24.78;76.19;100628.25;4917825;29;20070;-71
2023/08/12 12:42:42;;;;;;;3.13;1.75;;;;;;;24.68;75.86;100627.59;4917700;29;20091;-71
2023/08/12 12:45:46;;;;;;;3.72;2.13;;;;;;;24.64;77.23;100618.25;4917389;29;20099;-77
2023/08/12 12:48:49;;;;;;;4.80;2.03;;;;;;;24.68;76.82;100624.94;4917466;29;20466;-72
2023/08/12 12:51:53;;;;;;;3.35;1.88;;;;;;;24.78;77.57;100617.56;4916955;29;20474;-72
2023/08/12 12:54:57;;;;;;;3.20;1.83;;;;;;;24.91;74.52;100602.81;4916974;29;20059;-77
2023/08/12 12:58:04;;;;;;;4.00;1.60;;;;;;;25.05;73.17;100605.63;4917405;29;20054;-69
2023/08/12 13:01:07;;;;;;;4.47;1.80;;;;;;;25.21;72.78;100593.22;4917067;29;20092;-71
2023/08/12 13:04:10;;;;;;;4.72;1.48;;;;;;;25.29;70.23;100590.50;4917001;29;20055;-71
2023/08/12 13:07:14;;;;;;;3.28;1.70;;;;;;;25.46;70.23;100585.88;4917380;29;20158;-81
2023/08/12 13:10:17;;;;;;;4.65;1.50;;;;;;;25.70;68.17;100591.09;4917500;29;20075;-76
2023/08/12 13:13:20;;;;;;;3.13;1.50;;;;;;;26.09;67.38;100586.69;4916973;29;20111;-77
2023/08/12 13:16:24;;;;;;;3.15;1.60;;;;;;;26.32;64.94;100582.09;4917201;29;20051;-84
2023/08/12 13:19:30;;;;;;;4.47;1.40;;;;;;;26.61;63.58;100578.69;4917406;29;20039;-84
2023/08/12 13:22:41;;;;;;;2.65;1.20;;;;;;;27.01;62.64;100581.09;4905454;29;20415;-83
2023/08/12 13:25:45;;;;;;;8.85;1.48;;;;;;;27.05;60.92;100580.53;4905655;29;20047;-82
2023/08/12 13:28:52;;;;;;;5.45;1.60;;;;;;;26.69;62.51;100590.34;4917535;29;20482;-84
2023/08/12 13:32:04;;;;;;;3.90;1.50;;;;;;;26.61;62.21;100581.38;4917796;29;20047;-83
2023/08/12 13:35:11;;;;;;;3.85;1.45;;;;;;;26.70;62.09;100573.22;4905380;29;20080;-85
2023/08/12 13:38:40;;;;;;;7.85;1.67;;;;;;;26.63;63.44;100586.53;4916938;29;20079;-83
2023/08/12 13:51:04;;;;;;;5.82;1.23;;;;;;;25.72;64.94;100589.09;4921568;29;20078;-84
2023/08/12 13:54:19;;;;;;;5.18;3.08;;;;;;;25.35;64.84;100602.34;4932088;29;20103;-80
2023/08/12 13:57:23;;;;;;;5.57;1.90;;;;;;;25.30;65.96;100597.50;4935758;29;20198;-83
2023/08/12 14:00:29;;;;;;;3.90;1.90;;;;;;;25.32;66.80;100602.69;4916167;29;20573;-77
2023/08/12 14:03:33;;;;;;;5.45;1.80;;;;;;;25.20;66.50;100607.59;4916294;29;20476;-77
2023/08/12 14:06:40;;;;;;;4.70;1.52;;;;;;;25.00;67.16;100599.94;4938895;29;20130;-77
2023/08/12 14:09:47;;;;;;;3.40;1.35;;;;;;;24.86;66.47;100599.84;4936581;29;20172;-78
2023/08/12 14:12:51;;;;;;;5.10;1.58;;;;;;;24.80;66.63;100591.47;4940470;29;20114;-76
2023/08/12 14:15:54;;;;;;;3.10;1.40;;;;;;;24.73;66.15;100603.88;4933653;29;20048;-72
2023/08/12 14:18:58;;;;;;;3.10;1.35;;;;;;;24.52;65.07;100603.56;4933921;29;20047;-74
2023/08/12 14:22:05;;;;;;;3.22;1.38;;;;;;;24.51;65.31;100602.75;4933824;29;20051;-75
2023/08/12 14:25:16;;;;;;;3.50;1.02;;;;;;;24.49;65.19;100598.56;4947393;28;20567;-79
2023/08/12 14:28:28;;;;;;;2.67;1.30;;;;;;;24.55;65.73;100593.38;4953694;28;20532;-79
2023/08/12 14:31:36;;;;;;;4.22;1.33;;;;;;;24.55;66.30;100592.53;4953973;28;20054;-78
2023/08/12 14:34:46;;;;;;;2.35;1.10;;;;;;;24.50;65.81;100595.69;4954271;28;20050;-78
2023/08/12 14:37:53;;;;;;;4.68;1.45;;;;;;;24.44;66.38;100596.41;4953814;28;20405;-79
2023/08/12 14:40:56;;;;;;;7.32;1.50;;;;;;;24.41;67.00;100601.19;4953965;28;20130;-81